Time;durP1;ratioP1;P1;durP2;ratioP2;P2;SDS_P1;SDS_P2;PMS_P1;PMS_P2;Temp;Humidity;BMP_temperature;BMP_pressure;BME280_temperature;BME280_humidity;BME280_pressure;Samples;Min_cycle;Max_cycle;Signal;HPM_P1;HPM_P2
2022/12/06 00:02:26;;;;;;;79.93;8.20;;;;;;;;;;5073610;28;20050;-52
2022/12/06 00:04:53;;;;;;;79.70;7.40;;;;;;;;;;5073060;28;20114;-50
2022/12/06 00:07:21;;;;;;;79.57;7.20;;;;;;;;;;5072320;28;20032;-51
2022/12/06 00:09:48;;;;;;;77.75;8.35;;;;;;;;;;5072214;28;20040;-45
2022/12/06 00:12:15;;;;;;;79.95;7.60;;;;;;;;;;5072706;28;20121;-49
2022/12/06 00:14:42;;;;;;;61.90;7.05;;;;;;;;;;5072325;28;20454;-48
2022/12/06 00:17:09;;;;;;;90.80;7.80;;;;;;;;;;5073448;28;20047;-44
2022/12/06 00:19:36;;;;;;;77.60;7.13;;;;;;;;;;5073413;28;20032;-45
2022/12/06 00:22:03;;;;;;;61.30;5.30;;;;;;;;;;5073568;28;20048;-47
2022/12/06 00:24:30;;;;;;;61.50;6.00;;;;;;;;;;5073452;28;20024;-46
2022/12/06 00:26:57;;;;;;;60.40;6.40;;;;;;;;;;5073240;28;20485;-44
2022/12/06 00:29:24;;;;;;;35.28;3.85;;;;;;;;;;5072556;28;20493;-45
2022/12/06 00:31:51;;;;;;;47.88;5.22;;;;;;;;;;5072691;28;20038;-45
2022/12/06 00:34:18;;;;;;;48.92;4.65;;;;;;;;;;5073413;28;20025;-47
2022/12/06 00:36:46;;;;;;;32.22;4.20;;;;;;;;;;5073166;28;20067;-45
2022/12/06 00:39:15;;;;;;;47.03;8.10;;;;;;;;;;5073293;28;20036;-49
2022/12/06 00:41:42;;;;;;;46.28;10.30;;;;;;;;;;5073190;28;20025;-44
2022/12/06 00:44:09;;;;;;;49.65;13.57;;;;;;;;;;5073217;28;20029;-45
2022/12/06 00:46:37;;;;;;;49.25;15.00;;;;;;;;;;5073198;28;20025;-45
2022/12/06 00:49:05;;;;;;;44.97;14.80;;;;;;;;;;5072106;28;20482;-45
2022/12/06 00:51:33;;;;;;;50.28;15.05;;;;;;;;;;5072886;28;20120;-51
2022/12/06 00:54:01;;;;;;;49.08;13.68;;;;;;;;;;5072865;28;20032;-48
2022/12/06 00:56:28;;;;;;;58.50;11.93;;;;;;;;;;5072890;28;20478;-45
2022/12/06 00:58:55;;;;;;;47.28;9.90;;;;;;;;;;5054594;28;20056;-44
2022/12/06 01:01:23;;;;;;;34.38;7.43;;;;;;;;;;5072543;28;20032;-46
2022/12/06 01:03:52;;;;;;;40.83;7.40;;;;;;;;;;5072843;28;20024;-45
2022/12/06 01:06:21;;;;;;;51.65;7.38;;;;;;;;;;5050934;28;20375;-45
2022/12/06 01:08:49;;;;;;;42.33;7.05;;;;;;;;;;5070395;28;20084;-51
2022/12/06 01:11:16;;;;;;;48.60;6.88;;;;;;;;;;5071975;28;20170;-47
2022/12/06 01:13:43;;;;;;;33.63;4.40;;;;;;;;;;5072526;28;20032;-45
2022/12/06 01:16:11;;;;;;;30.20;4.13;;;;;;;;;;5072209;28;20036;-49
2022/12/06 01:18:39;;;;;;;22.75;3.10;;;;;;;;;;5071355;28;20531;-48
2022/12/06 01:21:07;;;;;;;30.88;3.40;;;;;;;;;;5054033;28;20030;-45
2022/12/06 01:23:35;;;;;;;24.00;3.03;;;;;;;;;;5071228;28;20025;-44
2022/12/06 01:26:02;;;;;;;21.48;2.25;;;;;;;;;;5070994;28;20035;-44
2022/12/06 01:28:29;;;;;;;19.52;2.72;;;;;;;;;;5071110;28;20031;-44
2022/12/06 01:30:56;;;;;;;23.85;2.38;;;;;;;;;;5070905;28;20028;-44
2022/12/06 01:33:23;;;;;;;24.42;2.22;;;;;;;;;;5071107;28;20028;-44
2022/12/06 01:35:50;;;;;;;22.48;2.70;;;;;;;;;;5071624;28;20044;-43
2022/12/06 01:38:17;;;;;;;21.65;2.47;;;;;;;;;;5072085;28;20548;-45
2022/12/06 01:40:45;;;;;;;15.30;2.00;;;;;;;;;;5071785;28;20031;-45
2022/12/06 01:43:30;;;;;;;15.38;2.63;;;;;;;;;;5071334;28;20028;-45
2022/12/06 01:45:59;;;;;;;15.00;2.10;;;;;;;;;;5070479;28;20053;-44
2022/12/06 01:48:27;;;;;;;11.90;1.98;;;;;;;;;;5071182;28;20103;-47
2022/12/06 01:50:55;;;;;;;11.90;1.95;;;;;;;;;;5071815;28;20033;-45
2022/12/06 01:53:23;;;;;;;23.65;2.22;;;;;;;;;;5071760;28;20024;-47
2022/12/06 01:55:51;;;;;;;19.90;2.20;;;;;;;;;;5071484;28;20432;-44
2022/12/06 01:58:22;;;;;;;20.83;3.08;;;;;;;;;;5071573;28;20114;-45
2022/12/06 02:00:49;;;;;;;23.60;2.78;;;;;;;;;;5070977;28;20040;-46
2022/12/06 02:03:19;;;;;;;20.77;2.88;;;;;;;;;;5071042;28;20104;-44
2022/12/06 02:05:46;;;;;;;18.15;2.40;;;;;;;;;;5070613;28;20107;-45
2022/12/06 02:08:13;;;;;;;22.95;2.17;;;;;;;;;;5071124;28;20619;-44
2022/12/06 02:10:40;;;;;;;18.33;2.30;;;;;;;;;;5048319;28;20052;-46
2022/12/06 02:13:08;;;;;;;22.05;2.80;;;;;;;;;;5051077;28;20033;-44
2022/12/06 02:15:46;;;;;;;17.35;2.70;;;;;;;;;;5051575;28;20017;-45
2022/12/06 02:18:16;;;;;;;28.75;3.05;;;;;;;;;;5050673;28;20836;-44
2022/12/06 02:20:50;;;;;;;20.65;2.70;;;;;;;;;;5051375;28;20540;-44
2022/12/06 02:23:28;;;;;;;23.48;3.38;;;;;;;;;;5051239;28;20021;-47
2022/12/06 02:25:58;;;;;;;16.15;2.80;;;;;;;;;;5051217;28;20029;-44
2022/12/06 02:28:44;;;;;;;28.45;3.55;;;;;;;;;;5051229;28;20104;-43
2022/12/06 02:31:31;;;;;;;18.00;3.28;;;;;;;;;;5051399;28;20033;-43
2022/12/06 02:34:18;;;;;;;30.45;3.28;;;;;;;;;;5031272;28;20068;-45
2022/12/06 02:37:03;;;;;;;25.75;3.08;;;;;;;;;;5031611;28;20506;-46
2022/12/06 02:39:48;;;;;;;28.02;3.40;;;;;;;;;;5031168;28;20017;-46
2022/12/06 02:42:19;;;;;;;35.75;3.53;;;;;;;;;;5049846;28;20024;-46
2022/12/06 02:44:53;;;;;;;21.63;2.75;;;;;;;;;;5050196;28;20036;-46
2022/12/06 02:47:21;;;;;;;22.63;2.88;;;;;;;;;;5047948;28;20403;-47
2022/12/06 02:49:49;;;;;;;19.33;2.70;;;;;;;;;;5054732;28;20056;-46
2022/12/06 02:52:19;;;;;;;22.45;2.30;;;;;;;;;;5062435;28;20028;-50
2022/12/06 02:54:47;;;;;;;19.20;2.67;;;;;;;;;;5060439;28;20032;-49
2022/12/06 02:57:14;;;;;;;25.65;2.97;;;;;;;;;;5064381;28;20078;-48
2022/12/06 02:59:51;;;;;;;37.50;4.28;;;;;;;;;;5062667;28;20021;-47
2022/12/06 03:02:18;;;;;;;27.38;3.30;;;;;;;;;;5062628;28;20094;-46
2022/12/06 03:04:48;;;;;;;22.63;2.92;;;;;;;;;;5060504;28;20025;-49
2022/12/06 03:07:15;;;;;;;19.98;2.70;;;;;;;;;;5057490;28;20037;-48
2022/12/06 03:09:42;;;;;;;15.48;2.20;;;;;;;;;;5054510;28;20025;-46
2022/12/06 03:12:24;;;;;;;15.60;2.22;;;;;;;;;;5071851;28;20036;-46
2022/12/06 03:14:51;;;;;;;18.98;2.10;;;;;;;;;;5075063;28;20021;-46
2022/12/06 03:17:21;;;;;;;11.63;1.83;;;;;;;;;;5075009;28;20478;-46
2022/12/06 03:19:51;;;;;;;14.18;1.85;;;;;;;;;;5074887;28;20040;-46
2022/12/06 03:22:25;;;;;;;17.98;1.85;;;;;;;;;;5074966;28;20024;-46
2022/12/06 03:24:52;;;;;;;15.93;1.90;;;;;;;;;;5074836;28;20044;-46
2022/12/06 03:27:20;;;;;;;15.55;1.70;;;;;;;;;;5074795;28;20017;-48
2022/12/06 03:29:56;;;;;;;13.38;1.67;;;;;;;;;;5074569;28;20040;-46
2022/12/06 03:32:26;;;;;;;14.32;1.95;;;;;;;;;;5074768;28;20389;-47
2022/12/06 03:34:54;;;;;;;14.45;1.50;;;;;;;;;;5074743;28;20024;-46
2022/12/06 03:37:22;;;;;;;34.63;3.40;;;;;;;;;;5074565;28;20048;-47
2022/12/06 03:40:08;;;;;;;12.88;1.85;;;;;;;;;;5074527;28;20113;-46
2022/12/06 03:42:35;;;;;;;15.90;1.48;;;;;;;;;;5074571;28;20025;-45
2022/12/06 03:45:03;;;;;;;14.20;1.60;;;;;;;;;;5074528;28;20043;-46
2022/12/06 03:47:45;;;;;;;11.15;1.23;;;;;;;;;;5074463;28;20906;-46
2022/12/06 03:50:24;;;;;;;9.45;1.67;;;;;;;;;;5074356;28;20115;-46
2022/12/06 03:52:52;;;;;;;19.08;2.35;;;;;;;;;;5074430;28;20028;-48
2022/12/06 03:55:19;;;;;;;29.00;2.92;;;;;;;;;;5074313;28;20104;-50
2022/12/06 03:57:46;;;;;;;22.23;2.47;;;;;;;;;;5056589;28;20032;-47
2022/12/06 04:00:13;;;;;;;14.60;2.40;;;;;;;;;;5074305;28;20077;-47
2022/12/06 04:02:40;;;;;;;19.05;2.33;;;;;;;;;;5073790;28;20021;-52
2022/12/06 04:05:07;;;;;;;14.68;1.95;;;;;;;;;;5074233;28;20051;-50
2022/12/06 04:07:34;;;;;;;13.02;2.38;;;;;;;;;;5074052;28;20036;-52
2022/12/06 04:10:02;;;;;;;12.57;2.10;;;;;;;;;;5073987;28;20125;-52
2022/12/06 04:15:19;;;;;;;12.05;1.50;;;;;;;;;;5074223;28;20055;-52
2022/12/06 04:23:18;;;;;;;8.23;1.63;;;;;;;;;;5042359;28;20054;-49
2022/12/06 04:25:45;;;;;;;5.72;1.20;;;;;;;;;;5073815;28;20021;-53
2022/12/06 04:39:13;;;;;;;7.80;1.33;;;;;;;;;;5073390;28;20457;-51
2022/12/06 04:44:25;;;;;;;9.27;1.25;;;;;;;;;;5073628;28;20039;-52
2022/12/06 04:46:51;;;;;;;3.95;0.85;;;;;;;;;;5073384;28;20028;-52
2022/12/06 04:49:18;;;;;;;4.15;1.00;;;;;;;;;;5073130;28;20035;-50
2022/12/06 04:51:46;;;;;;;8.82;1.10;;;;;;;;;;5073250;28;20020;-52
2022/12/06 04:54:12;;;;;;;4.95;0.82;;;;;;;;;;5073182;28;20033;-51
2022/12/06 04:56:39;;;;;;;3.50;0.90;;;;;;;;;;5072943;28;20035;-49
2022/12/06 04:59:06;;;;;;;10.52;1.10;;;;;;;;;;5073038;28;20027;-52
2022/12/06 05:01:33;;;;;;;5.45;1.05;;;;;;;;;;5073072;28;20474;-48
2022/12/06 05:04:00;;;;;;;5.65;1.00;;;;;;;;;;5054943;28;20047;-52
2022/12/06 05:06:27;;;;;;;5.68;0.85;;;;;;;;;;5073033;28;20751;-52
2022/12/06 05:08:54;;;;;;;3.85;0.80;;;;;;;;;;5072807;28;20020;-49
2022/12/06 05:11:21;;;;;;;6.15;1.13;;;;;;;;;;5072690;28;20044;-51
2022/12/06 05:13:48;;;;;;;4.72;1.20;;;;;;;;;;5072314;28;20032;-53
2022/12/06 05:16:15;;;;;;;4.78;0.98;;;;;;;;;;5072744;28;20024;-52
2022/12/06 05:18:42;;;;;;;5.38;0.90;;;;;;;;;;5072452;28;20033;-51
2022/12/06 05:21:16;;;;;;;2.65;1.00;;;;;;;;;;5072692;28;20405;-51
2022/12/06 05:23:43;;;;;;;6.70;1.27;;;;;;;;;;5072662;28;20119;-51
2022/12/06 05:26:12;;;;;;;6.80;1.10;;;;;;;;;;5072417;28;20497;-51
2022/12/06 05:28:39;;;;;;;4.95;0.95;;;;;;;;;;5072501;28;20154;-51
2022/12/06 05:31:06;;;;;;;2.88;0.80;;;;;;;;;;5072516;28;20158;-51
2022/12/06 05:33:33;;;;;;;5.28;0.80;;;;;;;;;;5072539;28;20094;-49
2022/12/06 05:36:05;;;;;;;3.78;1.10;;;;;;;;;;5072438;28;20032;-47
2022/12/06 05:38:33;;;;;;;3.78;0.82;;;;;;;;;;5072369;28;20029;-51
2022/12/06 05:41:00;;;;;;;6.03;1.00;;;;;;;;;;5072239;28;20031;-51
2022/12/06 05:43:28;;;;;;;6.70;1.27;;;;;;;;;;5072165;28;20059;-49
2022/12/06 05:45:55;;;;;;;6.75;0.90;;;;;;;;;;5072446;28;20106;-49
2022/12/06 05:48:22;;;;;;;7.38;1.17;;;;;;;;;;5072245;28;20020;-48
2022/12/06 05:50:50;;;;;;;6.88;1.40;;;;;;;;;;5072163;28;20379;-49
2022/12/06 05:53:17;;;;;;;3.65;1.13;;;;;;;;;;5072062;28;20107;-53
2022/12/06 05:55:44;;;;;;;5.35;1.00;;;;;;;;;;5072231;28;20051;-49
2022/12/06 05:58:11;;;;;;;6.80;1.10;;;;;;;;;;5071880;28;20029;-52
2022/12/06 06:00:38;;;;;;;6.75;1.00;;;;;;;;;;5072175;28;20063;-46
2022/12/06 06:03:05;;;;;;;6.70;1.00;;;;;;;;;;5069570;28;20036;-45
2022/12/06 06:05:32;;;;;;;4.50;1.27;;;;;;;;;;5072082;28;20093;-45
2022/12/06 06:07:59;;;;;;;3.28;1.00;;;;;;;;;;5071944;28;20101;-45
2022/12/06 06:10:26;;;;;;;6.90;1.10;;;;;;;;;;5071769;28;20067;-46
2022/12/06 06:12:53;;;;;;;4.38;1.10;;;;;;;;;;5072162;28;20386;-44
2022/12/06 06:15:20;;;;;;;6.15;1.10;;;;;;;;;;5072113;28;20020;-45
2022/12/06 06:17:47;;;;;;;6.63;1.08;;;;;;;;;;5072080;28;20048;-45
2022/12/06 06:20:14;;;;;;;4.15;1.20;;;;;;;;;;5071974;28;20056;-45
2022/12/06 06:22:41;;;;;;;6.93;1.10;;;;;;;;;;5072071;28;20363;-47
2022/12/06 06:25:08;;;;;;;3.97;0.90;;;;;;;;;;5072420;28;20112;-45
2022/12/06 06:27:36;;;;;;;5.22;1.20;;;;;;;;;;5076173;28;20394;-48
2022/12/06 06:30:05;;;;;;;7.85;1.30;;;;;;;;;;5076099;28;20179;-45
2022/12/06 06:32:32;;;;;;;5.07;0.98;;;;;;;;;;5075990;28;20036;-45
2022/12/06 06:34:59;;;;;;;5.53;1.05;;;;;;;;;;5076090;28;20036;-48
2022/12/06 06:37:26;;;;;;;6.95;0.90;;;;;;;;;;5075934;28;20020;-49
2022/12/06 06:39:53;;;;;;;3.53;1.00;;;;;;;;;;5076028;28;20075;-45
2022/12/06 06:42:20;;;;;;;7.55;1.30;;;;;;;;;;5075970;28;20033;-45
2022/12/06 06:44:47;;;;;;;3.42;0.90;;;;;;;;;;5075732;28;20036;-47
2022/12/06 06:47:14;;;;;;;6.65;1.30;;;;;;;;;;5075787;28;20021;-46
2022/12/06 06:49:41;;;;;;;2.80;0.90;;;;;;;;;;5075725;28;20032;-48
2022/12/06 06:52:08;;;;;;;7.57;0.90;;;;;;;;;;5075740;28;20028;-45
2022/12/06 06:54:35;;;;;;;6.07;1.17;;;;;;;;;;5075742;28;20024;-47
2022/12/06 06:57:02;;;;;;;6.82;1.13;;;;;;;;;;5075476;28;20024;-45
2022/12/06 06:59:29;;;;;;;4.15;1.00;;;;;;;;;;5075438;28;20056;-45
2022/12/06 07:01:56;;;;;;;6.25;1.02;;;;;;;;;;5075538;28;20399;-48
2022/12/06 07:04:23;;;;;;;4.63;1.00;;;;;;;;;;5075513;28;20529;-49
2022/12/06 07:06:50;;;;;;;6.20;1.13;;;;;;;;;;5075344;28;20025;-48
2022/12/06 07:09:17;;;;;;;5.05;1.10;;;;;;;;;;5075308;28;20032;-45
2022/12/06 07:11:44;;;;;;;4.40;0.80;;;;;;;;;;5075144;28;20531;-46
2022/12/06 07:14:11;;;;;;;7.38;1.10;;;;;;;;;;5075313;28;20150;-45
2022/12/06 07:16:38;;;;;;;4.47;0.90;;;;;;;;;;5215827;22;20555;-45
2022/12/06 07:19:05;;;;;;;4.05;1.02;;;;;;;;;;5052952;28;20056;-45
2022/12/06 07:21:32;;;;;;;6.47;1.08;;;;;;;;;;5055052;28;20478;-45
2022/12/06 07:23:59;;;;;;;2.55;0.80;;;;;;;;;;5054981;28;20021;-46
2022/12/06 07:26:27;;;;;;;5.68;0.90;;;;;;;;;;5054781;28;20466;-46
2022/12/06 07:28:57;;;;;;;5.18;1.00;;;;;;;;;;5053284;28;20029;-46
2022/12/06 07:31:26;;;;;;;6.53;1.10;;;;;;;;;;5054718;28;20478;-46
2022/12/06 07:33:54;;;;;;;2.33;1.02;;;;;;;;;;5054751;28;20035;-46
2022/12/06 07:36:22;;;;;;;6.30;1.10;;;;;;;;;;5054659;28;20044;-47
2022/12/06 07:38:50;;;;;;;5.07;1.20;;;;;;;;;;5053779;28;20100;-46
2022/12/06 07:46:48;;;;;;;3.72;1.10;;;;;;;;;;5054657;28;20040;-46
2022/12/06 07:49:16;;;;;;;4.15;1.10;;;;;;;;;;5054341;28;20029;-46
2022/12/06 07:51:46;;;;;;;3.15;1.10;;;;;;;;;;5054412;28;20051;-45
2022/12/06 07:54:14;;;;;;;6.50;1.35;;;;;;;;;;5054277;28;20033;-46
2022/12/06 07:56:41;;;;;;;2.90;1.00;;;;;;;;;;5054288;28;20031;-46
2022/12/06 07:59:08;;;;;;;2.50;1.10;;;;;;;;;;5054157;28;20036;-46
2022/12/06 08:01:35;;;;;;;6.50;1.20;;;;;;;;;;5052994;28;20409;-46
2022/12/06 08:04:03;;;;;;;7.00;1.40;;;;;;;;;;5054150;28;20029;-45
2022/12/06 08:06:30;;;;;;;3.42;1.23;;;;;;;;;;5053981;28;20052;-45
2022/12/06 08:08:57;;;;;;;5.63;1.40;;;;;;;;;;5053837;28;20116;-46
2022/12/06 08:11:24;;;;;;;7.03;1.50;;;;;;;;;;5054260;28;20029;-47
2022/12/06 08:13:51;;;;;;;5.60;1.55;;;;;;;;;;5054027;28;20068;-46
2022/12/06 08:16:18;;;;;;;3.60;1.60;;;;;;;;;;5053666;28;20017;-47
2022/12/06 08:18:45;;;;;;;4.75;1.67;;;;;;;;;;5053907;28;20017;-45
2022/12/06 08:21:12;;;;;;;4.68;1.83;;;;;;;;;;5053766;28;20025;-46
2022/12/06 08:23:39;;;;;;;4.65;1.90;;;;;;;;;;5053822;28;20390;-46
2022/12/06 08:26:08;;;;;;;5.07;1.80;;;;;;;;;;5053592;28;20040;-49
2022/12/06 08:28:36;;;;;;;4.68;1.85;;;;;;;;;;5053667;28;20032;-46
2022/12/06 08:31:07;;;;;;;6.70;1.85;;;;;;;;;;5053303;28;20483;-46
2022/12/06 08:33:34;;;;;;;5.03;2.13;;;;;;;;;;5053543;28;20049;-46
2022/12/06 08:36:01;;;;;;;6.10;2.20;;;;;;;;;;5053443;28;20386;-45
2022/12/06 08:38:28;;;;;;;6.60;2.15;;;;;;;;;;5053379;28;20481;-46
2022/12/06 08:40:55;;;;;;;5.80;2.17;;;;;;;;;;5053472;28;20024;-46
2022/12/06 08:43:22;;;;;;;7.28;2.35;;;;;;;;;;5053515;28;20055;-46
2022/12/06 08:45:52;;;;;;;4.75;2.00;;;;;;;;;;5053324;28;20478;-47
2022/12/06 08:48:20;;;;;;;4.13;1.80;;;;;;;;;;5052996;28;20028;-47
2022/12/06 08:50:47;;;;;;;7.70;1.88;;;;;;;;;;5052537;28;20025;-45
2022/12/06 08:53:14;;;;;;;4.55;1.90;;;;;;;;;;5051867;28;20379;-46
2022/12/06 08:55:41;;;;;;;5.65;1.77;;;;;;;;;;5053209;28;20581;-45
2022/12/06 08:58:08;;;;;;;6.60;2.35;;;;;;;;;;5053024;28;20028;-46
2022/12/06 09:00:35;;;;;;;9.52;2.10;;;;;;;;;;5053053;28;20504;-47
2022/12/06 09:03:02;;;;;;;5.65;1.73;;;;;;;;;;5051806;28;20025;-46
2022/12/06 09:05:29;;;;;;;5.32;1.98;;;;;;;;;;5052989;28;20492;-45
2022/12/06 09:07:56;;;;;;;7.28;2.13;;;;;;;;;;5051474;28;20040;-46
2022/12/06 09:10:23;;;;;;;5.28;2.13;;;;;;;;;;5052870;28;20029;-46
2022/12/06 09:12:50;;;;;;;7.60;2.17;;;;;;;;;;5052862;28;20482;-46
2022/12/06 09:15:23;;;;;;;6.63;2.90;;;;;;;;;;5052973;28;20411;-45
2022/12/06 09:17:56;;;;;;;5.47;3.17;;;;;;;;;;5052628;28;20044;-46
2022/12/06 09:20:23;;;;;;;8.98;3.92;;;;;;;;;;5052820;28;20022;-45
2022/12/06 09:22:49;;;;;;;9.48;4.15;;;;;;;;;;5052527;28;20028;-45
2022/12/06 09:25:16;;;;;;;7.97;4.82;;;;;;;;;;5052579;28;20024;-46
2022/12/06 09:27:43;;;;;;;15.80;6.00;;;;;;;;;;5051669;28;20032;-46
2022/12/06 09:30:10;;;;;;;12.63;6.32;;;;;;;;;;5051555;28;20041;-46
2022/12/06 09:32:38;;;;;;;11.90;5.78;;;;;;;;;;5051850;28;20067;-47
2022/12/06 09:35:05;;;;;;;11.95;6.90;;;;;;;;;;5051952;28;20056;-46
2022/12/06 09:37:32;;;;;;;34.97;7.30;;;;;;;;;;5049132;28;20021;-48
2022/12/06 09:40:02;;;;;;;18.20;6.95;;;;;;;;;;5050976;28;20111;-46
2022/12/06 09:42:38;;;;;;;18.33;7.72;;;;;;;;;;5051630;28;20028;-46
2022/12/06 09:45:13;;;;;;;17.77;6.93;;;;;;;;;;5051091;28;20052;-46
2022/12/06 09:47:58;;;;;;;17.77;6.60;;;;;;;;;;5050672;28;20052;-48
2022/12/06 09:50:28;;;;;;;32.50;7.45;;;;;;;;;;5049916;28;20044;-48
2022/12/06 09:52:58;;;;;;;21.38;6.43;;;;;;;;;;5051565;28;20044;-47
2022/12/06 09:55:37;;;;;;;21.30;5.88;;;;;;;;;;5052030;28;20497;-48
2022/12/06 09:58:16;;;;;;;20.27;6.13;;;;;;;;;;5050245;28;20402;-47
2022/12/06 10:00:47;;;;;;;15.52;6.13;;;;;;;;;;5051727;28;20025;-46
2022/12/06 10:03:20;;;;;;;36.72;7.85;;;;;;;;;;5051321;28;20086;-46
2022/12/06 10:06:01;;;;;;;20.75;5.50;;;;;;;;;;5051190;28;20352;-48
2022/12/06 10:08:31;;;;;;;22.10;5.70;;;;;;;;;;5051824;28;20017;-48
2022/12/06 10:10:58;;;;;;;29.70;4.65;;;;;;;;;;5051975;28;20032;-47
2022/12/06 10:13:48;;;;;;;23.70;5.45;;;;;;;;;;5031812;28;20495;-48
2022/12/06 10:16:23;;;;;;;33.38;5.38;;;;;;;;;;5032982;28;20487;-46
2022/12/06 10:19:08;;;;;;;32.22;4.70;;;;;;;;;;5051746;28;20056;-46
2022/12/06 10:21:45;;;;;;;20.73;3.50;;;;;;;;;;5051635;28;20036;-48
2022/12/06 10:24:12;;;;;;;38.67;5.43;;;;;;;;;;5051693;28;20025;-47
2022/12/06 10:26:48;;;;;;;39.90;4.75;;;;;;;;;;5051491;28;20071;-46
2022/12/06 10:29:15;;;;;;;26.33;4.15;;;;;;;;;;5051646;28;20029;-47
2022/12/06 10:31:42;;;;;;;29.65;3.88;;;;;;;;;;5051837;28;20028;-47
2022/12/06 10:34:12;;;;;;;28.15;3.50;;;;;;;;;;5051510;28;20441;-45
2022/12/06 10:36:51;;;;;;;88.32;7.53;;;;;;;;;;5051564;28;20017;-46
2022/12/06 10:39:21;;;;;;;55.10;4.85;;;;;;;;;;5051450;28;20033;-47
2022/12/06 10:41:54;;;;;;;16.10;2.65;;;;;;;;;;5051696;28;20017;-46
2022/12/06 10:44:31;;;;;;;46.33;4.32;;;;;;;;;;5051545;28;20475;-47
2022/12/06 10:47:02;;;;;;;28.92;3.83;;;;;;;;;;5051404;28;20383;-46
2022/12/06 10:49:49;;;;;;;28.00;3.42;;;;;;;;;;5051481;28;20493;-46
2022/12/06 10:52:25;;;;;;;28.70;3.75;;;;;;;;;;5051256;28;20044;-45
2022/12/06 10:55:04;;;;;;;46.63;4.60;;;;;;;;;;5051424;28;20450;-46
2022/12/06 10:57:46;;;;;;;79.30;6.75;;;;;;;;;;5051422;28;20076;-45
2022/12/06 11:00:13;;;;;;;26.17;2.60;;;;;;;;;;5051480;28;20031;-45
2022/12/06 11:02:43;;;;;;;39.05;4.40;;;;;;;;;;5051390;28;20033;-45
2022/12/06 11:05:17;;;;;;;101.45;7.72;;;;;;;;;;5049819;28;20067;-47
2022/12/06 11:07:47;;;;;;;54.95;2.95;;;;;;;;;;5044718;28;20550;-42
2022/12/06 11:10:22;;;;;;;28.52;2.63;;;;;;;;;;5050954;28;20090;-44
2022/12/06 11:12:54;;;;;;;30.40;2.35;;;;;;;;;;5052496;28;20041;-44
2022/12/06 11:15:33;;;;;;;37.15;3.05;;;;;;;;;;5054752;28;20033;-44
2022/12/06 11:18:11;;;;;;;22.35;2.17;;;;;;;;;;5054713;28;20502;-44
2022/12/06 11:21:00;;;;;;;62.42;4.43;;;;;;;;;;5054379;28;20021;-41
2022/12/06 11:23:35;;;;;;;36.42;2.60;;;;;;;;;;5054877;28;20164;-44
2022/12/06 11:26:09;;;;;;;73.40;4.03;;;;;;;;;;5054377;28;20025;-45
2022/12/06 11:28:39;;;;;;;16.98;1.75;;;;;;;;;;5054679;28;20035;-45
2022/12/06 11:31:15;;;;;;;83.10;6.55;;;;;;;;;;5054225;28;20112;-46
2022/12/06 11:33:42;;;;;;;35.10;3.45;;;;;;;;;;5051062;28;20576;-45
2022/12/06 11:36:09;;;;;;;53.20;2.75;;;;;;;;;;5053577;28;20071;-44
2022/12/06 11:38:39;;;;;;;24.67;2.70;;;;;;;;;;5052417;28;20090;-48
2022/12/06 11:41:08;;;;;;;28.15;2.33;;;;;;;;;;5051932;28;20021;-46
2022/12/06 11:43:35;;;;;;;149.27;8.32;;;;;;;;;;5052924;28;20459;-46
2022/12/06 11:46:03;;;;;;;135.35;8.85;;;;;;;;;;5051965;28;20094;-55
2022/12/06 11:48:32;;;;;;;104.88;8.98;;;;;;;;;;5053082;28;20032;-46
2022/12/06 11:50:59;;;;;;;149.20;9.65;;;;;;;;;;5054154;28;20102;-45
2022/12/06 11:53:58;;;;;;;147.65;11.25;;;;;;;;;;5054166;28;20078;-45
2022/12/06 11:56:26;;;;;;;103.50;11.13;;;;;;;;;;5020133;28;20081;-46
2022/12/06 11:59:06;;;;;;;89.18;9.32;;;;;;;;;;5053596;28;20123;-46
2022/12/06 12:01:38;;;;;;;73.93;8.13;;;;;;;;;;5054062;28;20478;-44
2022/12/06 12:04:23;;;;;;;68.03;6.65;;;;;;;;;;5054099;28;20029;-49
2022/12/06 12:06:58;;;;;;;77.75;8.50;;;;;;;;;;5053374;28;20025;-45
2022/12/06 12:09:26;;;;;;;68.03;6.88;;;;;;;;;;5053561;28;20112;-48
2022/12/06 12:11:56;;;;;;;56.58;5.97;;;;;;;;;;5053595;28;20087;-45
2022/12/06 12:14:27;;;;;;;48.65;5.68;;;;;;;;;;5053872;28;20021;-49
2022/12/06 12:16:58;;;;;;;54.63;5.85;;;;;;;;;;5053060;28;20387;-49
2022/12/06 12:19:28;;;;;;;45.17;5.85;;;;;;;;;;5053836;28;20044;-46
2022/12/06 12:21:57;;;;;;;34.85;4.55;;;;;;;;;;5052930;28;20036;-47
2022/12/06 12:24:45;;;;;;;44.85;4.82;;;;;;;;;;5053342;28;20529;-46
2022/12/06 12:27:32;;;;;;;29.83;3.92;;;;;;;;;;5052880;28;20040;-45
2022/12/06 12:30:19;;;;;;;30.02;3.95;;;;;;;;;;5053466;28;20512;-45
2022/12/06 12:32:47;;;;;;;35.38;4.60;;;;;;;;;;5052685;28;20033;-44
2022/12/06 12:35:27;;;;;;;33.22;4.00;;;;;;;;;;5053152;28;20028;-45
2022/12/06 12:37:55;;;;;;;35.30;4.15;;;;;;;;;;5052326;28;20029;-45
2022/12/06 12:40:25;;;;;;;32.47;4.20;;;;;;;;;;5053107;28;20024;-46
2022/12/06 12:43:21;;;;;;;29.70;3.53;;;;;;;;;;5052351;28;20477;-45
2022/12/06 12:46:03;;;;;;;21.63;2.75;;;;;;;;;;5040202;28;20043;-47
2022/12/06 12:48:30;;;;;;;21.35;3.13;;;;;;;;;;5052817;28;20028;-46
2022/12/06 12:51:02;;;;;;;20.55;2.63;;;;;;;;;;5053008;28;20029;-45
2022/12/06 12:53:29;;;;;;;12.45;2.10;;;;;;;;;;5050782;28;20108;-45
2022/12/06 12:56:09;;;;;;;26.40;2.53;;;;;;;;;;5052822;28;20036;-48
2022/12/06 12:58:37;;;;;;;27.48;2.92;;;;;;;;;;5052753;28;20343;-46
2022/12/06 13:01:07;;;;;;;24.50;3.00;;;;;;;;;;5052764;28;20037;-48
2022/12/06 13:03:34;;;;;;;22.77;2.47;;;;;;;;;;5051970;28;20017;-47
2022/12/06 13:06:02;;;;;;;38.95;2.92;;;;;;;;;;5052637;28;20171;-58
2022/12/06 13:08:34;;;;;;;29.85;2.83;;;;;;;;;;5052255;28;20029;-48
2022/12/06 13:11:03;;;;;;;79.63;5.30;;;;;;;;;;5052476;28;20029;-49
2022/12/06 13:13:30;;;;;;;35.42;2.63;;;;;;;;;;5052312;28;20502;-49
2022/12/06 13:16:00;;;;;;;28.00;2.40;;;;;;;;;;5052180;28;20029;-51
2022/12/06 13:18:34;;;;;;;32.13;2.67;;;;;;;;;;5051834;28;20049;-46
2022/12/06 13:21:03;;;;;;;19.88;2.25;;;;;;;;;;5052319;28;20034;-47
2022/12/06 13:23:33;;;;;;;21.77;2.17;;;;;;;;;;5052566;28;20096;-48
2022/12/06 13:26:11;;;;;;;16.52;2.15;;;;;;;;;;5051599;28;20159;-45
2022/12/06 13:28:43;;;;;;;15.52;2.13;;;;;;;;;;5052382;28;20025;-49
2022/12/06 13:31:17;;;;;;;19.77;2.40;;;;;;;;;;5052213;28;20407;-48
2022/12/06 13:33:54;;;;;;;23.40;2.47;;;;;;;;;;5052419;28;20033;-46
2022/12/06 13:36:23;;;;;;;18.75;2.15;;;;;;;;;;5050050;28;20764;-47
2022/12/06 13:38:50;;;;;;;23.23;2.47;;;;;;;;;;5052096;28;20029;-51
2022/12/06 13:44:41;;;;;;;42.78;4.03;;;;;;;;;;5052161;28;20545;-53
2022/12/06 13:47:26;;;;;;;27.17;2.65;;;;;;;;;;5050696;28;20037;-47
2022/12/06 13:50:00;;;;;;;22.73;2.92;;;;;;;;;;5052014;28;20040;-50
2022/12/06 13:52:39;;;;;;;19.05;2.67;;;;;;;;;;5052057;28;20040;-47
2022/12/06 13:55:32;;;;;;;24.58;2.40;;;;;;;;;;5052052;28;20025;-47
2022/12/06 13:57:59;;;;;;;33.38;3.80;;;;;;;;;;5027356;28;20099;-45
2022/12/06 14:00:29;;;;;;;29.40;3.83;;;;;;;;;;5050365;28;20449;-47
2022/12/06 14:02:57;;;;;;;27.73;4.00;;;;;;;;;;5051919;28;20029;-48
2022/12/06 14:05:42;;;;;;;19.23;3.42;;;;;;;;;;5051806;28;20020;-46
2022/12/06 14:08:12;;;;;;;26.88;4.07;;;;;;;;;;5040003;28;20424;-51
2022/12/06 14:10:39;;;;;;;27.95;4.95;;;;;;;;;;5051624;28;20087;-46
2022/12/06 14:13:06;;;;;;;28.63;4.85;;;;;;;;;;5051397;28;20423;-51
2022/12/06 14:15:37;;;;;;;24.98;4.50;;;;;;;;;;5048105;28;20098;-46
2022/12/06 14:18:04;;;;;;;26.20;4.47;;;;;;;;;;5049864;28;20049;-45
2022/12/06 14:20:31;;;;;;;29.52;6.53;;;;;;;;;;5051557;28;20029;-47
2022/12/06 14:22:58;;;;;;;49.13;7.32;;;;;;;;;;5051206;28;20059;-48
2022/12/06 14:25:27;;;;;;;36.95;7.22;;;;;;;;;;5051521;28;20036;-46
2022/12/06 14:28:11;;;;;;;42.60;7.22;;;;;;;;;;5050382;28;20079;-49
2022/12/06 14:30:38;;;;;;;34.60;6.47;;;;;;;;;;5051405;28;20037;-49
2022/12/06 14:33:17;;;;;;;27.63;5.90;;;;;;;;;;5048545;28;20144;-48
2022/12/06 14:35:48;;;;;;;30.25;6.13;;;;;;;;;;5045391;28;20033;-49
2022/12/06 14:38:26;;;;;;;34.03;5.70;;;;;;;;;;5047882;28;20036;-50
2022/12/06 14:43:40;;;;;;;25.90;5.35;;;;;;;;;;5051489;28;20398;-47
2022/12/06 14:46:10;;;;;;;33.28;5.80;;;;;;;;;;5050870;28;20029;-49
2022/12/06 14:51:27;;;;;;;49.03;6.28;;;;;;;;;;5054568;28;20094;-46
2022/12/06 14:53:54;;;;;;;37.83;5.05;;;;;;;;;;5055264;28;20028;-46
2022/12/06 14:56:25;;;;;;;37.20;6.00;;;;;;;;;;5054382;28;20029;-46
2022/12/06 14:58:52;;;;;;;23.88;4.68;;;;;;;;;;5054836;28;20033;-45
2022/12/06 15:01:23;;;;;;;26.67;4.88;;;;;;;;;;5054083;28;20032;-47
2022/12/06 15:03:57;;;;;;;35.17;5.35;;;;;;;;;;5054961;28;20604;-49
2022/12/06 15:06:25;;;;;;;23.73;4.68;;;;;;;;;;5054071;28;20037;-46
2022/12/06 15:09:12;;;;;;;25.80;5.25;;;;;;;;;;5054804;28;20025;-46
2022/12/06 15:14:29;;;;;;;31.40;5.20;;;;;;;;;;5055038;28;20103;-52
2022/12/06 15:16:56;;;;;;;28.30;4.97;;;;;;;;;;5053446;28;20044;-47
2022/12/06 15:19:23;;;;;;;24.20;5.20;;;;;;;;;;5053868;28;20120;-48
2022/12/06 15:21:51;;;;;;;32.45;4.97;;;;;;;;;;5054004;28;20032;-47
2022/12/06 15:24:19;;;;;;;28.13;4.60;;;;;;;;;;5054595;28;20303;-47
2022/12/06 15:26:46;;;;;;;37.38;4.60;;;;;;;;;;5052202;28;20029;-46
2022/12/06 15:29:14;;;;;;;24.65;4.25;;;;;;;;;;5053342;28;20037;-47
2022/12/06 15:31:44;;;;;;;23.17;4.15;;;;;;;;;;5053385;28;20083;-52